DCARONALD REAGAN WASHINGTON NTL
METARs for airports near DCA, sorted by distance:
N 0 nm 14' KDCA 221852Z VRB04KT 10SM FEW070 17/M01 A3010
E 8 nm 279' KADW 221855Z 29009KT 10SM CLR 16/M03 A3007
NE 9 nm 48' KCGS 221900Z 28007KT 10SM CLR 16/M02 A3010
SW 10 nm 73' KDAA 221855Z 32010G15KT 10SM CLR 17/M06 A3008
NE 19 nm 150' KFME 221859Z 27003KT 10SM CLR 17/M02 A3011
N 19 nm 538' KGAI 221856Z VRB04KT 10SM FEW070 16/M02 A3011
W 20 nm 312' KIAD 221852Z 31005G14KT 10SM FEW065 17/M03 A3010
W 23 nm 192' KHEF 221856Z 30009G15KT 270V330 10SM CLR 16/M02 A3011
SW 24 nm 10' KNYG 221856Z VRB04KT 10SM CLR 17/M01 A3012
NE 25 nm 143' KBWI 221854Z 26007KT 210V280 10SM FEW065 17/M01 A3008
NW 27 nm 389' KJYO 221855Z 29006G11KT 250V310 10SM CLR 16/00 A3012
SW 33 nm 211' KRMN 221855Z 35004KT 10SM CLR 16/M06 A3011
SW 35 nm 336' KHWY 221855Z 30004KT 10SM CLR 17/M06 A3011
NW 37 nm 308' KFDK 221847Z 28005KT 10SM CLR 17/M02 A3010
SW 40 nm 85' KEZF 221855Z 35005KT 10SM CLR 16/M02 A3010
NE 40 nm 21' KMTN 221854Z 17004KT 170V320 10SM CLR 16/01 A3010
SW 43 nm 315' KCJR 221855Z 00000KT 10SM SCT075 16/M05 A3012
SE 44 nm 38' KNHK 221852Z 03010KT 10SM CLR 16/M02 A3011
E 45 nm 72' KESN 221850Z 32007G15KT 10SM CLR 15/M03 A3010
N 45 nm 789' KDMW 221855Z 29008KT 10SM SCT070 17/M03 A3008
E 50 nm 19' KCGE 221855Z 33012G20KT 10SM CLR 15/M04 A3010
W 54 nm 726' KOKV 221855Z 30003G17KT 10SM CLR 15/M02 A3008
NE 54 nm 44' KAPG 221855Z 35007KT 9SM FEW040 17/M01 A3008
NW 55 nm 564' KMRB 221853Z 00000KT 10SM CLR 16/M03 A3007
W 56 nm 703' KFRR 221915Z 31005KT 10SM CLR A3008
SW 59 nm 464' KOMH 221855Z 03004KT 10SM CLR 15/M01 A3013
S 59 nm 135' KXSA 221855Z 36004KT 10SM CLR 15/M01 A3013
NW 60 nm 703' KHGR 221853Z 29009G18KT 10SM CLR 16/M04 A3008
N 64 nm 494' KTHV 221853Z 10SM CLR 16/M01 A3008
SW 66 nm 493' KLKU 221855Z 31007KT 280V070 10SM CLR 15/M03 A3012
SW 67 nm 454' KGVE 221855Z 01004KT 10SM BKN070 15/M01 A3011
W 69 nm 902' KLUA 221855Z 33006KT 10SM SCT070 17/M01 A3010
S 71 nm 206' KOFP 221854Z 10SM CLR 16/M02 A3013
E 75 nm 28' KDOV 221855Z 31007KT 10SM CLR 16/M03 A3006
E 78 nm 52' KSBY 221854Z 36007KT 10SM CLR 16/M04 A3009
SE 78 nm 5' KTGI 221915Z 30013G17KT 10SM CLR 14/03 A3012
SW 79 nm 640' KCHO 221853Z 18008KT 10SM CLR 17/M02 A3010
E 79 nm 53' KGED 221854Z VRB05KT 10SM CLR 16/M04 A3008
S 80 nm 20' KFYJ 221855Z 00000KT 10SM CLR 15/M01 A3012
N 81 nm 310' KMDT 221856Z 28010KT 10SM FEW070 16/M02 A3007
S 81 nm 167' KRIC 221854Z VRB05KT 10SM FEW020 16/M04 A3012
N 82 nm 346' KCXY 221856Z VRB04KT 10SM CLR 17/M03 A3007
NE 83 nm 79' KILG 221851Z 34014G19KT 10SM CLR 16/M02 A3009
NE 83 nm 402' KLNS 221853Z 30009G19KT 10SM CLR 16/00 A3007
NE 86 nm 660' KMQS 221855Z 30009G19KT 10SM CLR 14/M02 A3008
S 89 nm 236' KFCI 221156Z 36006KT 10SM CLR 06/M01 A3013
SE 92 nm 40' KWAL 221854Z 08007KT 10SM CLR 13/00 A3011
NW 92 nm 775' KCBE 221855Z 32006KT 10SM CLR 16/M05 A3013
SE 94 nm 47' KMFV 221735Z 35004G14KT 10SM SCT055 A3012
W 94 nm 1201' KSHD 221855Z 06007KT 010V080 10SM CLR 14/M01 A3013
TAFs for airports near DCA, sorted by distance:
N 0 nm 14' KDCA KDCA 221723Z 2218/2324 31009G15KT P6SM SCT070
  FM222100 34008KT P6SM FEW060
  FM230200 00000KT P6SM SKC
  FM231500 20007KT P6SM SCT250
  FM231900 20010G17KT P6SM SKC
E 8 nm 279' KADW TAF TAF KADW 221700Z 2217/2323 31012KT 9999 FEW060 QNH3011INS
  BECMG 2300/2301 VRB03KT 9999 SKC QNH3012INS
  BECMG 2312/2313 21012KT 9999 BKN250 QNH3008INS
  BECMG 2317/2318 19012G22KT 9999 FEW120 SCT250 QNH2998INS TX17/2220Z TN06/2310Z
SW 10 nm 73' KDAA TAF KDAA 221207Z 2212/2318 30006KT 9999 FEW120 QNH3012INS
  BECMG 2214/2215 34012KT 9999 FEW250 QNH3008INS
  BECMG 2223/2224 VRB06KT 9999 SKC QNH3012INS
  BECMG 2317/2318 20010G15KT 9999 SKC QNH3007INS TX19/2217Z TN05/2310Z
W 20 nm 312' KIAD KIAD 221723Z 2218/2324 31009G15KT P6SM FEW050
  FM222100 34006KT P6SM FEW050
  FM230200 00000KT P6SM SKC
  FM231500 20007KT P6SM SCT250
  FM231900 20010G17KT P6SM SKC
SW 24 nm 10' KNYG TAF KNYG 2209/2309 33009KT 9999 SCT250 QNH3008INS
  BECMG 2216/2218 35009KT 9999 SCT065 QNH3009INS
  FM230000 VRB06KT 9999 SKC QNH3010INS T02/2209Z T18/2220Z
NE 25 nm 143' KBWI KBWI 221723Z 2218/2324 30008G16KT P6SM FEW060
  FM222100 34007KT P6SM FEW060
  FM230200 00000KT P6SM SKC
  FM231500 20007KT P6SM SCT250
  FM231900 20010G17KT P6SM SKC
NE 40 nm 21' KMTN KMTN 221723Z 2218/2318 27005KT P6SM FEW050
  FM230300 00000KT P6SM SKC
  FM231500 18008KT P6SM FEW250
SE 44 nm 38' KNHK TAF KNHK 2215/2315 02011KT 9999 FEW160 FEW250 QNH3008INS
  BECMG 2221/2223 VRB05KT 9999 FEW060 QNH3010INS
  BECMG 2304/2306 26008KT 9999 SKC QNH3015INS TX17/2220Z TN07/2310Z FN20065
NW 55 nm 564' KMRB KMRB 221723Z 2218/2318 33010KT P6SM FEW050
  FM230200 00000KT P6SM SKC
  FM231500 20007KT P6SM FEW250
E 75 nm 28' KDOV TAF KDOV 220800Z 2208/2314 32009KT 9999 SKC QNH3003INS WND 34012KT AFT 2214
  BECMG 2223/2224 17009KT 9999 SKC QNH3012INS TX16/2220Z TN04/2208Z
E 78 nm 52' KSBY KSBY 221738Z 2218/2318 36010KT P6SM SKC
  FM230000 VRB02KT P6SM SKC
  FM231500 19007KT P6SM SCT250
SW 79 nm 640' KCHO KCHO 221723Z 2218/2318 03008KT P6SM SCT060
  FM222300 11004KT P6SM FEW060
  FM230200 00000KT P6SM FEW250
  FM231500 21007KT P6SM SKC
N 81 nm 310' KMDT KMDT 221800Z 2218/2318 30009G17KT P6SM SKC
  FM222300 31005KT P6SM SKC
  FM230000 VRB02KT P6SM SKC
  FM231200 17004KT P6SM BKN180
  FM231500 20009G16KT P6SM BKN130 BKN220
S 81 nm 167' KRIC KRIC 221738Z 2218/2318 01010KT P6SM SKC
  FM230000 VRB03KT P6SM SKC
  FM231500 21008KT P6SM SCT250
NE 83 nm 79' KILG KILG 221725Z 2218/2318 32010G16KT P6SM FEW060
  FM222100 32008KT P6SM SKC
  FM230200 VRB03KT P6SM SKC
  FM231300 18006KT P6SM FEW060
  FM231700 18008G18KT P6SM FEW060
NE 83 nm 402' KLNS KLNS 221740Z 2218/2318 31011G18KT P6SM SKC
  FM222300 34004KT P6SM SKC
  FM230000 00000KT P6SM SKC
  FM231200 18004KT P6SM BKN180
  FM231500 20009G16KT P6SM BKN130 BKN220

Shortcut to this page: http://wxbay.com.

Data may contain errors.